WZZ153 LFMN-EPWR
Flight info
| Callsign | WZZ153 |
|---|---|
| Flight time | 1h 34m |
| Altitude | 36000 |
| Route | BASI7A BASIP DCT ANAKI DCT TAGIP DCT GOGEM DCT LENIZ DCT MEBEK DCT NENUM DCT BEPAS DCT OKL DCT LAGAR DCT DINOV DINOV1U |
| Aircraft | A321/M-SDE1E2E3FGIJ1J4RWXY/LB1 |
Departure
| Time | 2026-05-05 16:14 |
|---|---|
| Airport | Nice-Côte d'Azur Airport (LFMN) |
Arrival
| Time | 2026-05-05 17:49 |
|---|---|
| Airport | Copernicus Wrocław Airport (EPWR) |
| Time | Latitude | Longitude | Altitude | Speed | Heading |
|---|---|---|---|---|---|
| 2026-05-05 15:44 | 43.66095 | 7.20956 | 22 ft | 0 kts | 266° |
| 2026-05-05 16:04 | 43.66095 | 7.20958 | 22 ft | 2 kts | 266° |
| 2026-05-05 16:04 | 43.66098 | 7.20991 | 23 ft | 3 kts | 263° |
| 2026-05-05 16:04 | 43.66103 | 7.21020 | 24 ft | 4 kts | 231° |
| 2026-05-05 16:05 | 43.66123 | 7.21034 | 24 ft | 4 kts | 177° |
| 2026-05-05 16:05 | 43.66138 | 7.21032 | 24 ft | 1 kts | 172° |
| 2026-05-05 16:05 | 43.66140 | 7.21031 | 24 ft | 0 kts | 172° |
| 2026-05-05 16:09 | 43.66139 | 7.21031 | 22 ft | 1 kts | 172° |
| 2026-05-05 16:09 | 43.66118 | 7.21035 | 22 ft | 6 kts | 172° |
| 2026-05-05 16:09 | 43.66062 | 7.21030 | 22 ft | 11 kts | 206° |
| 2026-05-05 16:10 | 43.65993 | 7.20945 | 22 ft | 16 kts | 225° |
| 2026-05-05 16:10 | 43.65908 | 7.20829 | 22 ft | 18 kts | 224° |
| 2026-05-05 16:10 | 43.65816 | 7.20710 | 22 ft | 18 kts | 221° |
| 2026-05-05 16:10 | 43.65722 | 7.20584 | 22 ft | 19 kts | 225° |
| 2026-05-05 16:11 | 43.65624 | 7.20449 | 22 ft | 20 kts | 225° |
| 2026-05-05 16:11 | 43.65322 | 7.20238 | 22 ft | 17 kts | 136° |
| 2026-05-05 16:12 | 43.65237 | 7.20351 | 23 ft | 17 kts | 135° |
| 2026-05-05 16:12 | 43.65040 | 7.20424 | 22 ft | 17 kts | 226° |
| 2026-05-05 16:13 | 43.64766 | 7.20336 | 24 ft | 14 kts | 120° |
| 2026-05-05 16:13 | 43.64812 | 7.20440 | 22 ft | 20 kts | 45° |
| 2026-05-05 16:13 | 43.65093 | 7.20827 | 24 ft | 93 kts | 44° |
| 2026-05-05 16:14 | 43.66439 | 7.22722 | 569 ft | 155 kts | 48° |
| 2026-05-05 16:14 | 43.66434 | 7.25590 | 1797 ft | 167 kts | 128° |
| 2026-05-05 16:15 | 43.64864 | 7.27935 | 3084 ft | 167 kts | 134° |
| 2026-05-05 16:15 | 43.63250 | 7.30604 | 3743 ft | 205 kts | 114° |
| 2026-05-05 16:16 | 43.63723 | 7.34737 | 4492 ft | 235 kts | 72° |
| 2026-05-05 16:16 | 43.64859 | 7.39005 | 5963 ft | 240 kts | 71° |
| 2026-05-05 16:17 | 43.66024 | 7.43400 | 7318 ft | 247 kts | 71° |
| 2026-05-05 16:17 | 43.66612 | 7.45641 | 8015 ft | 249 kts | 71° |
| 2026-05-05 16:18 | 43.67806 | 7.50218 | 9250 ft | 265 kts | 71° |
| 2026-05-05 16:18 | 43.68465 | 7.52709 | 9498 ft | 287 kts | 70° |
| 2026-05-05 16:18 | 43.69918 | 7.58152 | 10267 ft | 320 kts | 70° |
| 2026-05-05 16:19 | 43.70712 | 7.61139 | 10419 ft | 343 kts | 70° |
| 2026-05-05 16:19 | 43.71554 | 7.64307 | 10784 ft | 356 kts | 70° |
| 2026-05-05 16:19 | 43.73395 | 7.70791 | 11995 ft | 369 kts | 61° |
| 2026-05-05 16:20 | 43.76637 | 7.76417 | 13223 ft | 380 kts | 48° |
| 2026-05-05 16:20 | 43.80196 | 7.81963 | 14373 ft | 390 kts | 48° |
| 2026-05-05 16:21 | 43.83826 | 7.87652 | 15511 ft | 398 kts | 48° |
| 2026-05-05 16:22 | 43.89315 | 7.96522 | 17245 ft | 410 kts | 56° |
| 2026-05-05 16:22 | 43.92178 | 8.03360 | 18360 ft | 416 kts | 62° |
| 2026-05-05 16:23 | 43.95049 | 8.10418 | 19330 ft | 424 kts | 62° |
| 2026-05-05 16:23 | 43.96506 | 8.13992 | 19807 ft | 427 kts | 62° |
| 2026-05-05 16:23 | 43.99458 | 8.21240 | 20762 ft | 435 kts | 62° |
| 2026-05-05 16:24 | 44.00955 | 8.24922 | 21244 ft | 439 kts | 62° |
| 2026-05-05 16:24 | 44.02462 | 8.28636 | 21724 ft | 443 kts | 62° |
| 2026-05-05 16:24 | 44.05510 | 8.36174 | 22635 ft | 451 kts | 62° |
| 2026-05-05 16:25 | 44.07053 | 8.39999 | 23089 ft | 455 kts | 62° |
| 2026-05-05 16:25 | 44.10173 | 8.47753 | 23879 ft | 463 kts | 61° |
| 2026-05-05 16:25 | 44.11749 | 8.51674 | 24269 ft | 466 kts | 62° |
| 2026-05-05 16:26 | 44.14933 | 8.59592 | 25005 ft | 472 kts | 62° |
| 2026-05-05 16:26 | 44.18158 | 8.67622 | 25707 ft | 478 kts | 59° |
| 2026-05-05 16:27 | 44.20054 | 8.71446 | 26039 ft | 481 kts | 50° |
| 2026-05-05 16:27 | 44.22335 | 8.74851 | 26385 ft | 482 kts | 40° |
| 2026-05-05 16:27 | 44.24928 | 8.77814 | 26725 ft | 482 kts | 35° |
| 2026-05-05 16:27 | 44.27584 | 8.80696 | 27089 ft | 485 kts | 35° |
| 2026-05-05 16:28 | 44.30250 | 8.83600 | 27452 ft | 488 kts | 35° |
| 2026-05-05 16:28 | 44.32933 | 8.86534 | 27789 ft | 491 kts | 36° |
| 2026-05-05 16:28 | 44.35624 | 8.89488 | 28125 ft | 494 kts | 36° |
| 2026-05-05 16:28 | 44.38333 | 8.92462 | 28463 ft | 497 kts | 36° |
| 2026-05-05 16:29 | 44.41058 | 8.95457 | 28783 ft | 499 kts | 36° |
| 2026-05-05 16:29 | 44.43794 | 8.98470 | 29097 ft | 502 kts | 36° |
| 2026-05-05 16:29 | 44.46544 | 9.01504 | 29389 ft | 505 kts | 36° |
| 2026-05-05 16:29 | 44.49309 | 9.04558 | 29712 ft | 507 kts | 36° |
| 2026-05-05 16:30 | 44.52091 | 9.07634 | 29998 ft | 511 kts | 36° |
| 2026-05-05 16:30 | 44.54879 | 9.10721 | 30261 ft | 512 kts | 36° |
| 2026-05-05 16:30 | 44.57680 | 9.13832 | 30567 ft | 514 kts | 35° |
| 2026-05-05 16:30 | 44.60491 | 9.16956 | 30843 ft | 516 kts | 36° |
| 2026-05-05 16:31 | 44.63313 | 9.20087 | 31140 ft | 519 kts | 35° |
| 2026-05-05 16:31 | 44.66107 | 9.23187 | 31573 ft | 517 kts | 36° |
| 2026-05-05 16:31 | 44.68965 | 9.26362 | 31972 ft | 517 kts | 35° |
| 2026-05-05 16:31 | 44.71787 | 9.29501 | 32301 ft | 517 kts | 34° |
| 2026-05-05 16:32 | 44.74570 | 9.32601 | 32637 ft | 518 kts | 34° |
| 2026-05-05 16:32 | 44.77396 | 9.35757 | 32947 ft | 519 kts | 34° |
| 2026-05-05 16:32 | 44.80229 | 9.38926 | 33285 ft | 519 kts | 34° |
| 2026-05-05 16:32 | 44.83051 | 9.42093 | 33666 ft | 518 kts | 34° |
| 2026-05-05 16:33 | 44.85867 | 9.45261 | 34023 ft | 518 kts | 34° |
| 2026-05-05 16:33 | 44.88682 | 9.48429 | 34320 ft | 517 kts | 34° |
| 2026-05-05 16:33 | 44.91493 | 9.51590 | 34657 ft | 516 kts | 35° |
| 2026-05-05 16:33 | 44.94286 | 9.54736 | 35036 ft | 513 kts | 35° |
| 2026-05-05 16:34 | 44.97067 | 9.57874 | 35401 ft | 510 kts | 35° |
| 2026-05-05 16:34 | 44.99831 | 9.60994 | 35786 ft | 506 kts | 36° |
| 2026-05-05 16:34 | 45.02575 | 9.64094 | 35939 ft | 503 kts | 36° |
| 2026-05-05 16:34 | 45.05290 | 9.67168 | 35974 ft | 499 kts | 36° |
| 2026-05-05 16:35 | 45.10686 | 9.73293 | 35970 ft | 496 kts | 36° |
| 2026-05-05 16:35 | 45.16072 | 9.79403 | 35980 ft | 496 kts | 36° |
| 2026-05-05 16:36 | 45.21431 | 9.85499 | 35969 ft | 492 kts | 37° |
| 2026-05-05 16:36 | 45.26764 | 9.91593 | 35973 ft | 492 kts | 37° |
| 2026-05-05 16:37 | 45.32088 | 9.97701 | 35976 ft | 492 kts | 37° |
| 2026-05-05 16:37 | 45.37411 | 10.03816 | 35994 ft | 492 kts | 37° |
| 2026-05-05 16:38 | 45.42735 | 10.09932 | 35997 ft | 491 kts | 37° |
| 2026-05-05 16:38 | 45.48042 | 10.16060 | 35979 ft | 491 kts | 37° |
| 2026-05-05 16:39 | 45.53305 | 10.22138 | 35999 ft | 490 kts | 37° |
| 2026-05-05 16:39 | 45.58588 | 10.28264 | 36007 ft | 489 kts | 37° |
| 2026-05-05 16:40 | 45.63855 | 10.34394 | 35997 ft | 488 kts | 37° |
| 2026-05-05 16:40 | 45.69110 | 10.40519 | 35992 ft | 487 kts | 37° |
| 2026-05-05 16:41 | 45.74358 | 10.46655 | 36009 ft | 487 kts | 38° |
| 2026-05-05 16:41 | 45.79595 | 10.52798 | 36024 ft | 486 kts | 38° |
| 2026-05-05 16:42 | 45.84825 | 10.58938 | 36018 ft | 486 kts | 38° |
| 2026-05-05 16:42 | 45.90052 | 10.65090 | 36032 ft | 486 kts | 38° |
| 2026-05-05 16:43 | 45.95543 | 10.70660 | 36028 ft | 482 kts | 25° |
| 2026-05-05 16:43 | 46.01482 | 10.75128 | 36004 ft | 482 kts | 25° |
| 2026-05-05 16:44 | 46.07414 | 10.79610 | 36048 ft | 481 kts | 25° |
| 2026-05-05 16:44 | 46.13332 | 10.84104 | 36057 ft | 481 kts | 25° |
| 2026-05-05 16:45 | 46.19246 | 10.88609 | 36049 ft | 481 kts | 25° |
| 2026-05-05 16:45 | 46.25153 | 10.93110 | 36058 ft | 480 kts | 25° |
| 2026-05-05 16:46 | 46.31061 | 10.97627 | 36067 ft | 480 kts | 25° |
| 2026-05-05 16:46 | 46.36960 | 11.02156 | 36071 ft | 480 kts | 26° |
| 2026-05-05 16:47 | 46.42868 | 11.06695 | 36008 ft | 481 kts | 25° |
| 2026-05-05 16:47 | 46.48734 | 11.11218 | 36015 ft | 481 kts | 26° |
| 2026-05-05 16:48 | 46.54652 | 11.15785 | 35999 ft | 482 kts | 26° |
| 2026-05-05 16:48 | 46.60573 | 11.20372 | 35994 ft | 483 kts | 26° |
| 2026-05-05 16:49 | 46.66499 | 11.24973 | 35995 ft | 483 kts | 26° |
| 2026-05-05 16:49 | 46.72417 | 11.29584 | 35987 ft | 482 kts | 26° |
| 2026-05-05 16:50 | 46.78331 | 11.34186 | 35978 ft | 481 kts | 26° |
| 2026-05-05 16:50 | 46.83275 | 11.38045 | 35968 ft | 481 kts | 26° |
| 2026-05-05 16:51 | 46.89134 | 11.42645 | 35958 ft | 481 kts | 26° |
| 2026-05-05 16:51 | 46.95037 | 11.47283 | 35942 ft | 482 kts | 26° |
| 2026-05-05 16:52 | 47.01092 | 11.51409 | 35922 ft | 478 kts | 14° |
| 2026-05-05 16:52 | 47.07577 | 11.53013 | 35898 ft | 470 kts | 358° |
| 2026-05-05 16:53 | 47.14108 | 11.53409 | 35876 ft | 470 kts | 358° |
| 2026-05-05 16:53 | 47.20643 | 11.53827 | 35877 ft | 470 kts | 359° |
| 2026-05-05 16:54 | 47.27181 | 11.54262 | 35882 ft | 471 kts | 359° |
| 2026-05-05 16:54 | 47.33739 | 11.54692 | 35872 ft | 472 kts | 359° |
| 2026-05-05 16:55 | 47.40309 | 11.55120 | 35860 ft | 473 kts | 359° |
| 2026-05-05 16:55 | 47.46883 | 11.55549 | 35865 ft | 474 kts | 359° |
| 2026-05-05 16:56 | 47.53470 | 11.55984 | 35838 ft | 474 kts | 359° |
| 2026-05-05 16:56 | 47.60066 | 11.56741 | 35831 ft | 479 kts | 9° |
| 2026-05-05 16:57 | 47.66312 | 11.60235 | 35834 ft | 484 kts | 30° |
| 2026-05-05 16:57 | 47.71459 | 11.66594 | 35836 ft | 484 kts | 49° |
| 2026-05-05 16:58 | 47.75861 | 11.74144 | 35821 ft | 483 kts | 50° |
| 2026-05-05 16:58 | 47.80255 | 11.81712 | 35820 ft | 484 kts | 50° |
| 2026-05-05 16:59 | 47.84653 | 11.89303 | 35827 ft | 484 kts | 49° |
| 2026-05-05 16:59 | 47.89042 | 11.96870 | 35811 ft | 482 kts | 49° |
| 2026-05-05 17:00 | 47.93418 | 12.04422 | 35813 ft | 481 kts | 49° |
| 2026-05-05 17:00 | 47.97751 | 12.11941 | 35813 ft | 480 kts | 49° |
| 2026-05-05 17:01 | 48.02098 | 12.19509 | 35810 ft | 480 kts | 49° |
| 2026-05-05 17:01 | 48.06433 | 12.27085 | 35807 ft | 479 kts | 49° |
| 2026-05-05 17:02 | 48.10787 | 12.34704 | 35803 ft | 478 kts | 49° |
| 2026-05-05 17:02 | 48.15073 | 12.42229 | 35787 ft | 478 kts | 49° |
| 2026-05-05 17:03 | 48.19382 | 12.49820 | 35779 ft | 478 kts | 49° |
| 2026-05-05 17:03 | 48.23811 | 12.57243 | 35775 ft | 477 kts | 41° |
| 2026-05-05 17:04 | 48.28919 | 12.63592 | 35768 ft | 477 kts | 38° |
| 2026-05-05 17:04 | 48.34027 | 12.69944 | 35766 ft | 477 kts | 39° |
| 2026-05-05 17:05 | 48.39126 | 12.76317 | 35773 ft | 476 kts | 39° |
| 2026-05-05 17:05 | 48.44224 | 12.82687 | 35772 ft | 476 kts | 39° |
| 2026-05-05 17:06 | 48.49315 | 12.89071 | 35778 ft | 476 kts | 39° |
| 2026-05-05 17:06 | 48.54359 | 12.95542 | 35777 ft | 476 kts | 45° |
| 2026-05-05 17:07 | 48.58985 | 13.02689 | 35782 ft | 476 kts | 46° |
| 2026-05-05 17:07 | 48.63603 | 13.09846 | 35779 ft | 475 kts | 46° |
| 2026-05-05 17:08 | 48.68201 | 13.17009 | 35765 ft | 474 kts | 46° |
| 2026-05-05 17:08 | 48.72794 | 13.24179 | 35772 ft | 474 kts | 46° |
| 2026-05-05 17:09 | 48.77378 | 13.31361 | 35780 ft | 474 kts | 46° |
| 2026-05-05 17:09 | 48.81945 | 13.38537 | 35779 ft | 472 kts | 46° |
| 2026-05-05 17:10 | 48.86504 | 13.45706 | 35772 ft | 471 kts | 45° |
| 2026-05-05 17:10 | 48.91646 | 13.51777 | 35772 ft | 468 kts | 27° |
| 2026-05-05 17:11 | 48.97585 | 13.55744 | 35776 ft | 466 kts | 20° |
| 2026-05-05 17:11 | 49.03594 | 13.59454 | 35775 ft | 466 kts | 20° |
| 2026-05-05 17:12 | 49.09560 | 13.63149 | 35769 ft | 466 kts | 21° |
| 2026-05-05 17:12 | 49.15563 | 13.66872 | 35770 ft | 466 kts | 21° |
| 2026-05-05 17:13 | 49.21577 | 13.70610 | 35774 ft | 467 kts | 21° |
| 2026-05-05 17:13 | 49.27584 | 13.74358 | 35773 ft | 467 kts | 21° |
| 2026-05-05 17:14 | 49.33596 | 13.78124 | 35768 ft | 467 kts | 21° |
| 2026-05-05 17:14 | 49.39600 | 13.81895 | 35778 ft | 467 kts | 20° |
| 2026-05-05 17:15 | 49.45610 | 13.85682 | 35770 ft | 467 kts | 20° |
| 2026-05-05 17:15 | 49.51619 | 13.89475 | 35766 ft | 467 kts | 20° |
| 2026-05-05 17:16 | 49.57626 | 13.93269 | 35761 ft | 467 kts | 20° |
| 2026-05-05 17:16 | 49.63633 | 13.97078 | 35764 ft | 467 kts | 20° |
| 2026-05-05 17:17 | 49.69637 | 14.00897 | 35766 ft | 467 kts | 20° |
| 2026-05-05 17:17 | 49.75639 | 14.04725 | 35770 ft | 467 kts | 21° |
| 2026-05-05 17:18 | 49.81643 | 14.08563 | 35769 ft | 467 kts | 20° |
| 2026-05-05 17:18 | 49.87320 | 14.12186 | 35774 ft | 467 kts | 20° |
| 2026-05-05 17:19 | 49.93280 | 14.16013 | 35791 ft | 467 kts | 20° |
| 2026-05-05 17:19 | 49.99278 | 14.19894 | 35788 ft | 467 kts | 20° |
| 2026-05-05 17:20 | 50.05243 | 14.23760 | 35798 ft | 467 kts | 20° |
| 2026-05-05 17:20 | 50.10875 | 14.28801 | 35798 ft | 470 kts | 38° |
| 2026-05-05 17:21 | 50.15603 | 14.35837 | 35789 ft | 470 kts | 44° |
| 2026-05-05 17:22 | 50.22559 | 14.46617 | 35795 ft | 469 kts | 44° |
| 2026-05-05 17:22 | 50.27193 | 14.53807 | 35795 ft | 469 kts | 44° |
| 2026-05-05 17:23 | 50.31809 | 14.61002 | 35787 ft | 469 kts | 44° |
| 2026-05-05 17:23 | 50.36413 | 14.68225 | 35786 ft | 468 kts | 44° |
| 2026-05-05 17:24 | 50.41015 | 14.75455 | 35780 ft | 468 kts | 44° |
| 2026-05-05 17:24 | 50.45613 | 14.82686 | 35780 ft | 468 kts | 44° |
| 2026-05-05 17:25 | 50.50218 | 14.89943 | 35618 ft | 469 kts | 44° |
| 2026-05-05 17:25 | 50.51738 | 14.92343 | 35403 ft | 468 kts | 44° |
| 2026-05-05 17:25 | 50.54804 | 14.97193 | 34695 ft | 466 kts | 44° |
| 2026-05-05 17:25 | 50.57078 | 15.00807 | 34200 ft | 465 kts | 44° |
| 2026-05-05 17:26 | 50.59346 | 15.04417 | 33679 ft | 463 kts | 44° |
| 2026-05-05 17:26 | 50.61604 | 15.08011 | 33137 ft | 460 kts | 44° |
| 2026-05-05 17:26 | 50.63847 | 15.11582 | 32642 ft | 457 kts | 44° |
| 2026-05-05 17:26 | 50.66076 | 15.15134 | 32137 ft | 454 kts | 44° |
| 2026-05-05 17:27 | 50.68260 | 15.18618 | 31637 ft | 451 kts | 44° |
| 2026-05-05 17:27 | 50.70458 | 15.22131 | 31131 ft | 448 kts | 44° |
| 2026-05-05 17:27 | 50.72639 | 15.25625 | 30639 ft | 446 kts | 45° |
| 2026-05-05 17:27 | 50.74804 | 15.29101 | 30148 ft | 443 kts | 45° |
| 2026-05-05 17:28 | 50.76949 | 15.32573 | 29640 ft | 440 kts | 47° |
| 2026-05-05 17:28 | 50.78806 | 15.36383 | 29155 ft | 436 kts | 58° |
| 2026-05-05 17:28 | 50.80185 | 15.40608 | 28719 ft | 430 kts | 69° |
| 2026-05-05 17:28 | 50.81112 | 15.45069 | 28283 ft | 425 kts | 74° |
| 2026-05-05 17:29 | 50.81947 | 15.49523 | 27855 ft | 421 kts | 74° |
| 2026-05-05 17:29 | 50.82777 | 15.53941 | 27433 ft | 417 kts | 75° |
| 2026-05-05 17:29 | 50.83596 | 15.58316 | 27024 ft | 414 kts | 75° |
| 2026-05-05 17:29 | 50.84410 | 15.62665 | 26612 ft | 411 kts | 75° |
| 2026-05-05 17:30 | 50.85217 | 15.66987 | 26233 ft | 408 kts | 75° |
| 2026-05-05 17:30 | 50.86016 | 15.71276 | 25825 ft | 405 kts | 75° |
| 2026-05-05 17:30 | 50.86810 | 15.75544 | 25433 ft | 403 kts | 75° |
| 2026-05-05 17:30 | 50.87597 | 15.79785 | 25017 ft | 401 kts | 75° |
| 2026-05-05 17:31 | 50.88376 | 15.84008 | 24600 ft | 399 kts | 75° |
| 2026-05-05 17:31 | 50.89149 | 15.88211 | 24186 ft | 397 kts | 75° |
| 2026-05-05 17:31 | 50.89917 | 15.92405 | 23763 ft | 396 kts | 75° |
| 2026-05-05 17:31 | 50.90680 | 15.96580 | 23316 ft | 394 kts | 75° |
| 2026-05-05 17:32 | 50.91440 | 16.00744 | 22850 ft | 392 kts | 75° |
| 2026-05-05 17:32 | 50.92193 | 16.04879 | 22408 ft | 388 kts | 76° |
| 2026-05-05 17:32 | 50.92692 | 16.09041 | 21978 ft | 382 kts | 87° |
| 2026-05-05 17:32 | 50.92688 | 16.13211 | 21552 ft | 376 kts | 96° |
| 2026-05-05 17:33 | 50.92511 | 16.17332 | 21117 ft | 373 kts | 96° |
| 2026-05-05 17:33 | 50.92343 | 16.21426 | 20680 ft | 371 kts | 95° |
| 2026-05-05 17:33 | 50.92181 | 16.25486 | 20266 ft | 367 kts | 95° |
| 2026-05-05 17:33 | 50.92020 | 16.29512 | 19846 ft | 365 kts | 95° |
| 2026-05-05 17:34 | 50.91857 | 16.33509 | 19440 ft | 362 kts | 95° |
| 2026-05-05 17:34 | 50.91693 | 16.37478 | 19010 ft | 360 kts | 95° |
| 2026-05-05 17:34 | 50.91527 | 16.41423 | 18591 ft | 358 kts | 95° |
| 2026-05-05 17:34 | 50.91361 | 16.45337 | 18187 ft | 356 kts | 95° |
| 2026-05-05 17:35 | 50.91218 | 16.49240 | 17725 ft | 354 kts | 91° |
| 2026-05-05 17:35 | 50.91300 | 16.53119 | 17312 ft | 350 kts | 89° |
| 2026-05-05 17:35 | 50.91394 | 16.56955 | 16904 ft | 347 kts | 89° |
| 2026-05-05 17:35 | 50.91485 | 16.60759 | 16489 ft | 344 kts | 89° |
| 2026-05-05 17:36 | 50.91571 | 16.64531 | 16078 ft | 341 kts | 89° |
| 2026-05-05 17:36 | 50.91652 | 16.68275 | 15686 ft | 338 kts | 90° |
| 2026-05-05 17:36 | 50.91731 | 16.71989 | 15286 ft | 336 kts | 90° |
| 2026-05-05 17:36 | 50.91811 | 16.75624 | 14899 ft | 334 kts | 90° |
| 2026-05-05 17:37 | 50.91890 | 16.79281 | 14508 ft | 332 kts | 90° |
| 2026-05-05 17:37 | 50.91942 | 16.81749 | 14238 ft | 330 kts | 90° |
| 2026-05-05 17:37 | 50.92042 | 16.86548 | 13722 ft | 328 kts | 90° |
| 2026-05-05 17:37 | 50.92115 | 16.90153 | 13313 ft | 327 kts | 90° |
| 2026-05-05 17:38 | 50.92184 | 16.93735 | 12925 ft | 324 kts | 91° |
| 2026-05-05 17:38 | 50.92251 | 16.97284 | 12543 ft | 321 kts | 91° |
| 2026-05-05 17:38 | 50.92317 | 17.00802 | 12163 ft | 318 kts | 91° |
| 2026-05-05 17:38 | 50.92382 | 17.04291 | 11785 ft | 315 kts | 91° |
| 2026-05-05 17:39 | 50.92449 | 17.07751 | 11411 ft | 313 kts | 91° |
| 2026-05-05 17:39 | 50.92451 | 17.11178 | 11043 ft | 309 kts | 98° |
| 2026-05-05 17:39 | 50.92019 | 17.14438 | 10796 ft | 297 kts | 112° |
| 2026-05-05 17:39 | 50.91187 | 17.17420 | 10398 ft | 294 kts | 120° |
| 2026-05-05 17:40 | 50.90582 | 17.19329 | 10123 ft | 293 kts | 120° |
| 2026-05-05 17:40 | 50.89672 | 17.22227 | 9718 ft | 294 kts | 119° |
| 2026-05-05 17:40 | 50.88768 | 17.25127 | 9326 ft | 293 kts | 119° |
| 2026-05-05 17:40 | 50.87878 | 17.27986 | 9135 ft | 284 kts | 119° |
| 2026-05-05 17:41 | 50.87025 | 17.30728 | 9031 ft | 273 kts | 119° |
| 2026-05-05 17:41 | 50.86372 | 17.33482 | 8896 ft | 266 kts | 99° |
| 2026-05-05 17:41 | 50.86612 | 17.36331 | 8763 ft | 262 kts | 67° |
| 2026-05-05 17:41 | 50.87747 | 17.38581 | 8339 ft | 268 kts | 33° |
| 2026-05-05 17:42 | 50.89399 | 17.39961 | 7931 ft | 270 kts | 26° |
| 2026-05-05 17:42 | 50.91126 | 17.41168 | 7526 ft | 273 kts | 13° |
| 2026-05-05 17:42 | 50.92969 | 17.41072 | 7284 ft | 263 kts | 338° |
| 2026-05-05 17:42 | 50.94430 | 17.39486 | 7003 ft | 253 kts | 304° |
| 2026-05-05 17:43 | 50.95207 | 17.37049 | 6678 ft | 247 kts | 289° |
| 2026-05-05 17:43 | 50.95921 | 17.34563 | 6350 ft | 248 kts | 294° |
| 2026-05-05 17:43 | 50.96745 | 17.32166 | 6071 ft | 247 kts | 295° |
| 2026-05-05 17:43 | 50.97534 | 17.29757 | 5757 ft | 245 kts | 294° |
| 2026-05-05 17:44 | 50.98290 | 17.27339 | 5433 ft | 244 kts | 294° |
| 2026-05-05 17:44 | 50.99041 | 17.24923 | 5111 ft | 243 kts | 294° |
| 2026-05-05 17:44 | 50.99786 | 17.22525 | 4807 ft | 242 kts | 294° |
| 2026-05-05 17:44 | 51.00531 | 17.20132 | 4491 ft | 241 kts | 294° |
| 2026-05-05 17:45 | 51.01271 | 17.17748 | 4173 ft | 240 kts | 294° |
| 2026-05-05 17:45 | 51.02005 | 17.15378 | 3857 ft | 239 kts | 295° |
| 2026-05-05 17:45 | 51.02732 | 17.13032 | 3568 ft | 234 kts | 296° |
| 2026-05-05 17:45 | 51.03448 | 17.10722 | 3242 ft | 231 kts | 297° |
| 2026-05-05 17:46 | 51.04151 | 17.08446 | 2937 ft | 227 kts | 299° |
| 2026-05-05 17:46 | 51.04840 | 17.06216 | 2661 ft | 223 kts | 301° |
| 2026-05-05 17:46 | 51.05514 | 17.04033 | 2372 ft | 218 kts | 300° |
| 2026-05-05 17:46 | 51.06173 | 17.01896 | 2102 ft | 210 kts | 301° |
| 2026-05-05 17:47 | 51.06780 | 16.99922 | 1823 ft | 188 kts | 301° |
| 2026-05-05 17:47 | 51.07310 | 16.98194 | 1601 ft | 160 kts | 302° |
| 2026-05-05 17:47 | 51.07783 | 16.96680 | 1360 ft | 145 kts | 301° |
| 2026-05-05 17:47 | 51.08222 | 16.95260 | 1149 ft | 142 kts | 302° |
| 2026-05-05 17:48 | 51.08659 | 16.93860 | 961 ft | 143 kts | 303° |
| 2026-05-05 17:48 | 51.09099 | 16.92426 | 814 ft | 144 kts | 302° |
| 2026-05-05 17:48 | 51.09538 | 16.90991 | 623 ft | 145 kts | 300° |
| 2026-05-05 17:48 | 51.09972 | 16.89552 | 455 ft | 143 kts | 301° |
| 2026-05-05 17:49 | 51.10403 | 16.88170 | 409 ft | 131 kts | 296° |
| 2026-05-05 17:49 | 51.10665 | 16.87365 | 408 ft | 26 kts | 296° |
| 2026-05-05 17:49 | 51.10683 | 16.87303 | 405 ft | 4 kts | 294° |
| 2026-05-05 17:49 | 51.10692 | 16.87276 | 407 ft | 0 kts | 301° |
| 2026-05-05 17:50 | 51.10700 | 16.87268 | 409 ft | 3 kts | 333° |
| 2026-05-05 17:50 | 51.10740 | 16.87267 | 409 ft | 11 kts | 11° |
| 2026-05-05 17:50 | 51.10820 | 16.87327 | 406 ft | 13 kts | 24° |
| 2026-05-05 17:50 | 51.10910 | 16.87393 | 409 ft | 15 kts | 25° |
| 2026-05-05 17:51 | 51.10940 | 16.87492 | 406 ft | 11 kts | 112° |
| 2026-05-05 17:51 | 51.10908 | 16.87612 | 405 ft | 13 kts | 115° |
| 2026-05-05 17:51 | 51.10866 | 16.87744 | 408 ft | 14 kts | 117° |
| 2026-05-05 17:51 | 51.10820 | 16.87893 | 407 ft | 16 kts | 116° |
| 2026-05-05 17:52 | 51.10781 | 16.88022 | 404 ft | 9 kts | 115° |
| 2026-05-05 17:52 | 51.10768 | 16.88095 | 408 ft | 4 kts | 66° |
| 2026-05-05 17:52 | 51.10777 | 16.88092 | 408 ft | 2 kts | 348° |
| 2026-05-05 17:52 | 51.10802 | 16.88076 | 408 ft | 4 kts | 356° |
| 2026-05-05 17:53 | 51.10831 | 16.88094 | 408 ft | 0 kts | 24° |